Time,TemperatureF,DewpointF,PressureIn,WindDirection,WindDirectionDegrees,WindSpeedMPH,WindSpeedGustMPH,Humidity,HourlyPrecipIn,Conditions,Clouds,dailyrainin,SoftwareType,DateUTC
2013-02-05 00:03:00,35.2,31.0,29.93,WNW,303,3.0,4.0,83,0.00,,,0.00,weatherlink.com 1.10,2013-02-05 06:03:00,
2013-02-05 00:32:00,34.3,30.0,29.93,NW,322,1.0,3.0,84,0.00,,,0.00,weatherlink.com 1.10,2013-02-05 06:32:00,
2013-02-05 00:48:00,33.9,30.0,29.93,NW,321,4.0,4.0,86,0.00,,,0.00,weatherlink.com 1.10,2013-02-05 06:48:00,
2013-02-05 01:03:00,33.3,30.0,29.94,NW,325,6.0,7.0,87,0.00,,,0.00,weatherlink.com 1.10,2013-02-05 07:03:00,
2013-02-05 01:17:00,32.9,30.0,29.94,NW,320,1.0,5.0,87,0.00,,,0.00,weatherlink.com 1.10,2013-02-05 07:17:00,
2013-02-05 01:33:00,32.5,29.0,29.94,NNW,328,2.0,5.0,88,0.00,,,0.00,weatherlink.com 1.10,2013-02-05 07:33:00,
2013-02-05 01:48:00,32.1,29.0,29.94,NW,310,2.0,5.0,89,0.00,,,0.00,weatherlink.com 1.10,2013-02-05 07:48:00,
2013-02-05 02:03:00,31.7,29.0,29.95,NW,323,4.0,6.0,89,0.00,,,0.00,weatherlink.com 1.10,2013-02-05 08:03:00,
2013-02-05 02:18:00,31.4,29.0,29.94,NW,324,3.0,5.0,90,0.00,,,0.00,weatherlink.com 1.10,2013-02-05 08:18:00,
2013-02-05 02:33:00,31.1,29.0,29.94,NW,316,2.0,3.0,90,0.00,,,0.00,weatherlink.com 1.10,2013-02-05 08:33:00,
2013-02-05 02:48:00,30.8,28.0,29.93,NW,316,0.0,1.0,90,0.00,,,0.00,weatherlink.com 1.10,2013-02-05 08:48:00,
2013-02-05 03:03:00,30.2,28.0,29.94,NW,316,0.0,0.0,91,0.00,,,0.00,weatherlink.com 1.10,2013-02-05 09:03:00,
2013-02-05 03:18:00,29.8,28.0,29.94,NW,316,0.0,1.0,91,0.00,,,0.00,weatherlink.com 1.10,2013-02-05 09:18:00,
2013-02-05 03:33:00,29.4,27.0,29.94,NW,316,0.0,1.0,92,0.00,,,0.00,weatherlink.com 1.10,2013-02-05 09:33:00,
2013-02-05 03:48:00,29.1,27.0,29.93,NW,316,0.0,0.0,92,0.00,,,0.00,weatherlink.com 1.10,2013-02-05 09:48:00,
2013-02-05 04:03:00,28.8,27.0,29.93,NW,316,0.0,0.0,93,0.00,,,0.00,weatherlink.com 1.10,2013-02-05 10:03:00,
2013-02-05 04:18:00,28.6,27.0,29.93,NW,316,0.0,0.0,93,0.00,,,0.00,weatherlink.com 1.10,2013-02-05 10:18:00,
2013-02-05 04:33:00,28.4,27.0,29.94,NW,316,0.0,0.0,94,0.00,,,0.00,weatherlink.com 1.10,2013-02-05 10:33:00,
2013-02-05 04:48:00,28.2,27.0,29.94,NW,316,0.0,0.0,94,0.00,,,0.00,weatherlink.com 1.10,2013-02-05 10:48:00,
2013-02-05 05:03:00,27.9,26.0,29.95,NW,316,0.0,0.0,94,0.00,,,0.00,weatherlink.com 1.10,2013-02-05 11:03:00,
2013-02-05 05:18:00,27.8,26.0,29.95,NW,316,0.0,0.0,94,0.00,,,0.00,weatherlink.com 1.10,2013-02-05 11:18:00,
2013-02-05 05:33:00,27.3,26.0,29.95,NW,316,2.0,2.0,94,0.00,,,0.00,weatherlink.com 1.10,2013-02-05 11:33:00,
2013-02-05 05:48:00,26.9,25.0,29.96,NW,316,0.0,0.0,94,0.00,,,0.00,weatherlink.com 1.10,2013-02-05 11:48:00,
2013-02-05 06:03:00,27.2,26.0,29.97,NW,316,0.0,3.0,95,0.00,,,0.00,weatherlink.com 1.10,2013-02-05 12:03:00,
2013-02-05 06:18:00,27.6,26.0,29.98,NW,307,1.0,3.0,95,0.00,,,0.00,weatherlink.com 1.10,2013-02-05 12:18:00,
2013-02-05 06:33:00,27.5,26.0,29.98,NW,306,0.0,0.0,95,0.00,,,0.00,weatherlink.com 1.10,2013-02-05 12:33:00,
2013-02-05 06:48:00,27.2,26.0,29.98,NW,306,0.0,0.0,94,0.00,,,0.00,weatherlink.com 1.10,2013-02-05 12:48:00,
2013-02-05 07:03:00,27.1,26.0,29.98,NW,306,0.0,0.0,95,0.00,,,0.00,weatherlink.com 1.10,2013-02-05 13:03:00,
2013-02-05 07:18:00,27.0,26.0,29.97,NW,306,0.0,0.0,95,0.00,,,0.00,weatherlink.com 1.10,2013-02-05 13:18:00,
2013-02-05 07:34:00,27.7,27.0,29.97,NW,306,0.0,1.0,95,0.00,,,0.00,weatherlink.com 1.10,2013-02-05 13:34:00,
2013-02-05 07:48:00,29.3,28.0,29.97,NW,306,1.0,2.0,96,0.00,,,0.00,weatherlink.com 1.10,2013-02-05 13:48:00,
2013-02-05 08:04:00,29.9,29.0,29.98,NW,307,0.0,1.0,95,0.00,,,0.00,weatherlink.com 1.10,2013-02-05 14:04:00,
2013-02-05 08:19:00,31.0,29.0,29.97,SE,145,3.0,4.0,93,0.00,,,0.00,weatherlink.com 1.10,2013-02-05 14:19:00,
2013-02-05 08:33:00,31.3,29.0,29.98,SE,145,2.0,3.0,92,0.00,,,0.00,weatherlink.com 1.10,2013-02-05 14:33:00,
2013-02-05 08:49:00,31.8,30.0,29.98,SE,145,2.0,4.0,91,0.00,,,0.00,weatherlink.com 1.10,2013-02-05 14:49:00,
2013-02-05 09:03:00,33.2,30.0,29.98,SE,128,4.0,4.0,88,0.00,,,0.00,weatherlink.com 1.10,2013-02-05 15:03:00,
2013-02-05 09:33:00,34.7,31.0,29.98,SSE,150,3.0,8.0,85,0.00,,,0.00,weatherlink.com 1.10,2013-02-05 15:33:00,
2013-02-05 09:48:00,35.4,31.0,29.97,SSE,160,6.0,9.0,85,0.00,,,0.00,weatherlink.com 1.10,2013-02-05 15:48:00,
2013-02-05 10:03:00,37.1,32.0,29.96,SSE,156,2.0,7.0,83,0.01,,,0.01,weatherlink.com 1.10,2013-02-05 16:03:00,
2013-02-05 10:19:00,39.4,33.0,29.97,SW,226,4.0,8.0,79,0.01,,,0.01,weatherlink.com 1.10,2013-02-05 16:19:00,
2013-02-05 10:34:00,40.8,34.0,29.97,SSE,158,7.0,11.0,76,0.01,,,0.01,weatherlink.com 1.10,2013-02-05 16:34:00,
2013-02-05 10:49:00,41.7,34.0,29.96,SSW,206,4.0,10.0,74,0.01,,,0.01,weatherlink.com 1.10,2013-02-05 16:49:00,
2013-02-05 11:04:00,43.1,35.0,29.95,South,191,3.0,9.0,72,0.00,,,0.01,weatherlink.com 1.10,2013-02-05 17:04:00,
2013-02-05 11:19:00,44.4,35.0,29.95,SSW,195,6.0,11.0,69,0.00,,,0.01,weatherlink.com 1.10,2013-02-05 17:19:00,
2013-02-05 11:34:00,45.7,35.0,29.94,SSW,193,4.0,13.0,66,0.00,,,0.01,weatherlink.com 1.10,2013-02-05 17:34:00,
2013-02-05 11:49:00,46.5,35.0,29.93,SW,223,7.0,14.0,64,0.00,,,0.01,weatherlink.com 1.10,2013-02-05 17:49:00,
2013-02-05 12:04:00,47.6,35.0,29.92,SSW,206,11.0,11.0,62,0.00,,,0.01,weatherlink.com 1.10,2013-02-05 18:04:00,
2013-02-05 12:19:00,48.8,35.0,29.91,South,172,8.0,12.0,60,0.00,,,0.01,weatherlink.com 1.10,2013-02-05 18:19:00,
2013-02-05 12:34:00,49.1,35.0,29.91,WSW,243,3.0,11.0,59,0.00,,,0.01,weatherlink.com 1.10,2013-02-05 18:34:00,
2013-02-05 12:49:00,50.4,35.0,29.91,SW,218,3.0,7.0,57,0.00,,,0.01,weatherlink.com 1.10,2013-02-05 18:49:00,
2013-02-05 13:04:00,51.4,36.0,29.90,West,274,0.0,7.0,55,0.00,,,0.01,weatherlink.com 1.10,2013-02-05 19:04:00,
2013-02-05 13:19:00,52.6,35.0,29.90,SW,216,5.0,10.0,51,0.00,,,0.01,weatherlink.com 1.10,2013-02-05 19:19:00,
2013-02-05 13:34:00,52.7,35.0,29.89,West,259,7.0,14.0,51,0.00,,,0.01,weatherlink.com 1.10,2013-02-05 19:34:00,
2013-02-05 13:49:00,53.0,35.0,29.89,WSW,256,9.0,13.0,51,0.00,,,0.01,weatherlink.com 1.10,2013-02-05 19:49:00,
2013-02-05 14:04:00,53.5,36.0,29.90,WSW,246,9.0,11.0,51,0.00,,,0.01,weatherlink.com 1.10,2013-02-05 20:04:00,
2013-02-05 14:19:00,54.1,36.0,29.90,WSW,250,7.0,15.0,50,0.00,,,0.01,weatherlink.com 1.10,2013-02-05 20:19:00,
2013-02-05 14:34:00,54.2,36.0,29.90,West,280,7.0,11.0,50,0.00,,,0.01,weatherlink.com 1.10,2013-02-05 20:34:00,
2013-02-05 14:49:00,55.2,37.0,29.90,SSW,201,1.0,13.0,50,0.00,,,0.01,weatherlink.com 1.10,2013-02-05 20:49:00,
2013-02-05 15:05:00,55.2,37.0,29.90,SW,216,9.0,11.0,50,0.00,,,0.01,weatherlink.com 1.10,2013-02-05 21:05:00,
2013-02-05 15:19:00,55.9,37.0,29.90,SW,214,8.0,9.0,49,0.00,,,0.01,weatherlink.com 1.10,2013-02-05 21:19:00,
2013-02-05 15:34:00,55.9,37.0,29.90,South,191,3.0,11.0,49,0.00,,,0.01,weatherlink.com 1.10,2013-02-05 21:34:00,
2013-02-05 15:49:00,56.4,37.0,29.90,SW,216,4.0,8.0,49,0.00,,,0.01,weatherlink.com 1.10,2013-02-05 21:49:00,
2013-02-05 16:04:00,56.3,38.0,29.90,SSW,211,1.0,8.0,50,0.00,,,0.01,weatherlink.com 1.10,2013-02-05 22:04:00,
2013-02-05 16:19:00,56.8,38.0,29.91,South,176,2.0,8.0,49,0.00,,,0.01,weatherlink.com 1.10,2013-02-05 22:19:00,
2013-02-05 16:34:00,56.5,37.0,29.91,SW,230,0.0,7.0,49,0.00,,,0.01,weatherlink.com 1.10,2013-02-05 22:34:00,
2013-02-05 16:49:00,55.9,38.0,29.91,South,180,4.0,7.0,51,0.00,,,0.01,weatherlink.com 1.10,2013-02-05 22:49:00,
2013-02-05 17:05:00,54.8,38.0,29.91,South,177,5.0,6.0,54,0.00,,,0.01,weatherlink.com 1.10,2013-02-05 23:05:00,
2013-02-05 17:20:00,53.5,38.0,29.92,South,179,1.0,5.0,57,0.00,,,0.01,weatherlink.com 1.10,2013-02-05 23:20:00,
2013-02-05 17:35:00,52.5,39.0,29.92,SW,218,1.0,4.0,60,0.00,,,0.01,weatherlink.com 1.10,2013-02-05 23:35:00,
2013-02-05 17:50:00,51.8,39.0,29.93,SW,218,0.0,2.0,62,0.00,,,0.01,weatherlink.com 1.10,2013-02-05 23:50:00,
2013-02-05 18:05:00,50.0,39.0,29.93,SW,218,0.0,2.0,66,0.00,,,0.01,weatherlink.com 1.10,2013-02-06 00:05:00,
2013-02-05 18:20:00,48.5,39.0,29.94,SW,218,0.0,3.0,69,0.00,,,0.01,weatherlink.com 1.10,2013-02-06 00:20:00,
2013-02-05 18:35:00,47.6,39.0,29.95,SW,218,1.0,2.0,72,0.00,,,0.01,weatherlink.com 1.10,2013-02-06 00:35:00,
2013-02-05 18:50:00,46.8,39.0,29.96,SW,218,0.0,2.0,73,0.00,,,0.01,weatherlink.com 1.10,2013-02-06 00:50:00,
2013-02-05 19:05:00,45.6,38.0,29.97,NNW,327,3.0,5.0,75,0.00,,,0.01,weatherlink.com 1.10,2013-02-06 01:05:00,
2013-02-05 19:20:00,44.3,38.0,29.98,North,4,2.0,5.0,79,0.00,,,0.01,weatherlink.com 1.10,2013-02-06 01:20:00,
2013-02-05 19:35:00,44.0,38.0,29.98,SSW,204,2.0,4.0,80,0.00,,,0.01,weatherlink.com 1.10,2013-02-06 01:35:00,
2013-02-05 19:50:00,43.2,37.0,30.00,WSW,253,0.0,3.0,80,0.00,,,0.01,weatherlink.com 1.10,2013-02-06 01:50:00,
2013-02-05 20:05:00,43.6,38.0,30.00,WSW,237,0.0,8.0,82,0.00,,,0.01,weatherlink.com 1.10,2013-02-06 02:05:00,
2013-02-05 20:20:00,43.8,38.0,30.01,WSW,237,1.0,2.0,81,0.00,,,0.01,weatherlink.com 1.10,2013-02-06 02:20:00,
2013-02-05 20:35:00,46.7,38.0,30.02,WNW,296,0.0,4.0,71,0.00,,,0.01,weatherlink.com 1.10,2013-02-06 02:35:00,
2013-02-05 20:50:00,46.7,37.0,30.02,WNW,296,2.0,3.0,69,0.00,,,0.01,weatherlink.com 1.10,2013-02-06 02:50:00,
2013-02-05 21:05:00,45.5,36.0,30.03,WNW,288,0.0,5.0,70,0.00,,,0.01,weatherlink.com 1.10,2013-02-06 03:05:00,
2013-02-05 21:20:00,44.5,36.0,30.05,WNW,294,0.0,2.0,71,0.00,,,0.01,weatherlink.com 1.10,2013-02-06 03:20:00,
2013-02-05 21:35:00,43.6,35.0,30.05,WNW,293,0.0,2.0,72,0.00,,,0.01,weatherlink.com 1.10,2013-02-06 03:35:00,
2013-02-05 21:50:00,42.9,35.0,30.05,WNW,293,0.0,2.0,73,0.00,,,0.01,weatherlink.com 1.10,2013-02-06 03:50:00,
2013-02-05 22:05:00,41.5,35.0,30.06,WNW,293,0.0,1.0,77,0.00,,,0.01,weatherlink.com 1.10,2013-02-06 04:05:00,
2013-02-05 22:20:00,41.0,34.0,30.07,WNW,293,0.0,1.0,77,0.00,,,0.01,weatherlink.com 1.10,2013-02-06 04:20:00,
2013-02-05 22:35:00,40.2,34.0,30.07,WNW,294,0.0,1.0,79,0.00,,,0.01,weatherlink.com 1.10,2013-02-06 04:35:00,
2013-02-05 22:50:00,40.0,34.0,30.07,North,359,0.0,2.0,78,0.00,,,0.01,weatherlink.com 1.10,2013-02-06 04:50:00,
2013-02-05 23:05:00,39.4,34.0,30.08,North,359,0.0,0.0,80,0.00,,,0.01,weatherlink.com 1.10,2013-02-06 05:05:00,
2013-02-05 23:20:00,39.0,33.0,30.09,North,359,0.0,2.0,80,0.00,,,0.01,weatherlink.com 1.10,2013-02-06 05:20:00,
2013-02-05 23:35:00,38.6,33.0,30.09,North,359,0.0,1.0,81,0.00,,,0.01,weatherlink.com 1.10,2013-02-06 05:35:00,
2013-02-05 23:50:00,39.7,33.0,30.10,North,354,3.0,6.0,78,0.00,,,0.01,weatherlink.com 1.10,2013-02-06 05:50:00,